Relevés horaires Spa / La Sauveniere (Belgique)


Relevés horaires à Spa / La Sauveniere - Samedi 17 Avr. 2021
Heure UTC1 Température [°C] Vent [km/h] Hum. [%] Pres.4 [hPa] Visi. [Km] Nébu. [octa] Préc.5 [mm] Cond.
2m. Res. Ros. Dir.2 Vit. Moy. Raf.3
23:00 4.5 4.5 -0.1 NNO 1.9 1.9 3.7 72 1023.7(-0.2/3h) 29 8/8 -- --
22:00 5.0 5.0 -0.3 E 1.9 1.9 3.7 69 1023.6(0.1/3h) 30 8/8 -- --
21:00 4.9 4.9 -0.4 NNO 0.0 5.6 9.3 68 1023.8(0.2/3h) 35 8/8 -- --
20:00 4.1 4.1 -1.2 ESE 1.9 1.9 5.6 68 1024(0.4/3h) 35 8/8 -- --
19:00 5.1 5.1 -1.2 NE 1.9 5.6 9.3 64 1023.7(0.3/3h) 35 0/8 -- --
18:00 6.8 5.9 -1.2 NNE 5.6 11.1 16.7 57 1023.2(-0.2/3h) 35 8/8 0/12h
--
17:00 7.2 6.4 -0.8 NNE 5.6 7.4 13.0 57 1022.9(-0.8/3h) 35 8/8 -- --
16:00 8.2 7.5 -1.2 NNE 5.6 9.3 14.8 51 1022.7(-1.3/3h) 35 6/8 -- --
15:00 8.8 7.7 -2.5 N 7.4 11.1 16.7 45 1023(-1.1/3h) 30 8/8 -- --
14:00 9.0 8 -2.0 NNE 7.4 9.3 16.7 46 1023.4(-1.0/3h) 35 0/8 -- --
13:00 8.4 6.9 -1.9 N 9.3 11.1 16.7 48 1024.1(-0.9/3h) 35 4/8 -- --
12:00 7.9 6.7 -2.3 NNO 7.4 11.1 18.5 48 1024.4(-0.9/3h) 35 2/8 0/6h
--
11:00 7.6 5.9 -2.7 N 9.3 11.1 18.5 48 1024.8(-0.5/3h) 35 0/8 -- --
10:00 6.9 5.1 -3.6 N 9.3 9.3 18.5 47 1025.3(0.1/3h) 30 0/8 -- --
09:00 6.2 4.7 -0.9 N 7.4 7.4 14.8 60 1025.6(0.2/3h) 35 0/8 -- --
08:00 4.2 4.2 -0.1 NNO 3.7 3.7 5.6 74 1026(0.2/3h) 26 0/8 -- --
07:00 2.7 2.7 -0.7 NNO 1.9 1.9 3.7 78 1026.3(0.4/3h) 24 0/8 -- --
06:00 1.3 1.3 -1.5 E 1.9 3.7 3.7 82 1026.5(-0.1/3h) 22 0/8 0/12h
--
05:00 0.8 0.8 -2.2 ENE 1.9 1.9 1.9 80 1026.6(-0.1/3h) 23 0/8 -- --
04:00 0.7 0.7 -2.1 E 1.9 1.9 3.7 81 1026.3(-0.5/3h) 24 0/8 -- --
03:00 0.9 0.9 -2.1 E 1.9 3.7 3.7 80 1026.4(-0.4/3h) 28 0/8 -- --
02:00 1.6 1.6 -1.7 ENE 1.9 1.9 3.7 79 1026.5(-0.5/3h) 35 8/8 -- --
01:00 2.5 2.5 -1.6 ENE 1.9 3.7 3.7 74 1026.4(-0.5/3h) 40 8/8 -- --
00:00 2.1 2.1 -2.6 E 1.9 3.7 9.3 71 1026.7(-0.5/3h) 45 8/8 0/6h
0/24h
--

1 Coordinated Universal Time. Actuellement il est 12:00 locale et 10:00 UTC.

2 Le vent souffle depuis la direction indiquée vers la direction oposée.

3 Les rafales max. sont disponible 40 min après l'heure du relevé.

4 Pour les stations d'altitude (plus de 600m) le géopotentiel du niveau le plus proche de la pression obligatoire est indiqué.

5 Les stations disposant d'un diffuseur peuvent indiquer "trace". Cela signifie que des précipitations ont touchés le sol mais que la quantité est inférieure à 0.1 mm.

Récapitulatif de la journée
Température [°C] Vent [km/h] Ensoleillement4 [h] Precipitations totale5 [mm] Pression [Hpa]
Min1 Max.2 Moy.3 Max. Min Max.
0.4 9.2 5.9 18.5 0 h 0 min 0 1022.7 1026.7

1 Température minimale relevée entre 18:00 UTC la veille et 18:00 UTC le jour donné.

2 Température maximale relevée entre 06:00 UTC le jour donné et 06:00 UTC le lendemain.

3 Vent moyen de la journée basé sur les relevés horaires.

4 Ensoleillement en heures relevé entre 06:00 UTC la veille et 06:00 UTC le jour donné.

5 Précipitations totales tombées entre 06:00 UTC la jour donné et 06:00 UTC le lendemain.

Graphiques horaires